Montpelier Junction, Vermont
Current Conditions -  °F | °C
As of 2:51 PM on Wednesday 17 Dec 2014 (Local Time) from KMPV Reporting Station
Haze Haze  
Wind Chill: 34°   Ceiling: 300
Heat Index: 34°   Visibility: 1.2mi
Dew Point: 34°   Wind: 0mph
Humidity: 100%   Direction: NA
Pressure: 29.76"   Gusts: NA
Location:  44.2861°N, 72.6004°W
Report Text: KMPV 171951Z AUTO 00000KT 1 1/4SM BR OVC003 01/01 A2976 RMK AO2 SLP090 T00110011
Loading
Personal Weather Stations






























Interactive Weather Map New forecast layout! Learn more

10-Day Weather Forecast

Advertisements
Track Severe Weather on mobile